createdAt,value
2022-08-22T00:03:01.919Z,97791.72
2022-08-22T00:03:16.022Z,97780.25
2022-08-22T00:06:16.094Z,97763.88
2022-08-22T00:09:19.476Z,97757.38
2022-08-22T00:12:16.564Z,97762.38
2022-08-22T00:15:42.323Z,97756.88
2022-08-22T00:18:31.871Z,97757.50
2022-08-22T00:21:27.388Z,97753.16
2022-08-22T00:24:26.696Z,97748.03
2022-08-22T00:27:19.510Z,97752.69
2022-08-22T00:30:13.764Z,97757.22
2022-08-22T00:33:06.511Z,97761.09
2022-08-22T00:36:07.175Z,97750.53
2022-08-22T00:39:07.969Z,97753.91
2022-08-22T00:42:48.307Z,97748.91
2022-08-22T00:45:55.010Z,97764.00
2022-08-22T00:49:06.424Z,97753.50
2022-08-22T00:52:30.262Z,97760.56
2022-08-22T00:55:37.570Z,97758.66
2022-08-22T00:59:18.033Z,97753.88
2022-08-22T01:02:31.947Z,97746.06
2022-08-22T01:05:36.353Z,97750.72
2022-08-22T01:08:39.647Z,97740.59
2022-08-22T01:12:03.534Z,97745.97
2022-08-22T01:14:56.989Z,97747.78
2022-08-22T01:18:18.272Z,97748.28
2022-08-22T01:21:47.764Z,97750.44
2022-08-22T01:25:21.905Z,97747.94
2022-08-22T01:28:57.683Z,97737.06
2022-08-22T01:32:29.561Z,97742.97
2022-08-22T01:35:38.085Z,97734.13
2022-08-22T01:38:51.900Z,97735.84
2022-08-22T01:41:56.520Z,97736.91
2022-08-22T01:45:04.030Z,97745.47
2022-08-22T01:47:57.045Z,97746.00
2022-08-22T01:50:52.396Z,97743.13
2022-08-22T01:53:45.909Z,97745.88
2022-08-22T01:56:37.207Z,97751.22
2022-08-22T01:59:34.174Z,97744.06
2022-08-22T02:02:41.215Z,97747.00
2022-08-22T02:05:37.298Z,97750.94
2022-08-22T02:08:39.050Z,97742.47
2022-08-22T02:11:40.070Z,97745.31
2022-08-22T02:14:41.857Z,97741.34
2022-08-22T02:17:35.177Z,97741.25
2022-08-22T02:20:27.522Z,97740.56
2022-08-22T02:23:23.649Z,97736.31
2022-08-22T02:26:18.467Z,97736.28
2022-08-22T02:29:13.060Z,97737.16
2022-08-22T02:32:07.953Z,97747.56
2022-08-22T02:35:06.955Z,97742.19
2022-08-22T02:38:09.293Z,97743.53
2022-08-22T02:41:07.173Z,97740.53
2022-08-22T02:44:03.080Z,97739.75
2022-08-22T02:46:57.209Z,97740.59
2022-08-22T02:49:56.308Z,97744.38
2022-08-22T02:52:55.806Z,97738.03
2022-08-22T02:55:51.629Z,97740.47
2022-08-22T02:58:46.635Z,97739.75
2022-08-22T03:01:40.708Z,97743.94
2022-08-22T03:04:48.514Z,97747.03
2022-08-22T03:07:42.417Z,97749.25
2022-08-22T03:10:38.182Z,97743.22
2022-08-22T03:13:37.155Z,97740.38
2022-08-22T03:16:34.297Z,97747.28
2022-08-22T03:19:31.438Z,97744.22
2022-08-22T03:22:26.183Z,97747.84
2022-08-22T03:25:27.138Z,97746.28
2022-08-22T03:28:21.587Z,97751.94
2022-08-22T03:31:14.732Z,97748.00
2022-08-22T03:34:22.607Z,97749.16
2022-08-22T03:37:20.337Z,97749.94
2022-08-22T03:40:23.732Z,97754.72
2022-08-22T03:43:35.832Z,97752.94
2022-08-22T03:46:41.135Z,97758.06
2022-08-22T03:49:59.896Z,97752.69
2022-08-22T03:53:19.982Z,97758.41
2022-08-22T03:56:54.076Z,97756.03
2022-08-22T04:00:28.910Z,97763.03
2022-08-22T04:03:53.769Z,97771.22
2022-08-22T04:07:08.869Z,97769.88
2022-08-22T04:10:38.062Z,97766.72
2022-08-22T04:14:01.055Z,97776.47
2022-08-22T04:17:07.533Z,97780.97
2022-08-22T04:20:16.732Z,97789.19
2022-08-22T04:23:41.267Z,97789.66
2022-08-22T04:26:38.049Z,97776.06
2022-08-22T04:29:33.154Z,97771.16
2022-08-22T04:32:27.852Z,97774.03
2022-08-22T04:35:27.450Z,97776.63
2022-08-22T04:38:22.414Z,97775.88
2022-08-22T04:41:15.118Z,97780.53
2022-08-22T04:44:11.708Z,97776.81
2022-08-22T04:47:09.466Z,97789.00
2022-08-22T04:50:03.584Z,97786.41
2022-08-22T04:53:09.078Z,97787.38
2022-08-22T04:56:07.518Z,97792.16
2022-08-22T04:58:59.348Z,97795.75
2022-08-22T05:01:54.062Z,97794.94
2022-08-22T05:04:49.162Z,97800.78
2022-08-22T05:07:41.608Z,97791.91
2022-08-22T05:10:36.753Z,97795.19
2022-08-22T05:13:30.258Z,97796.97
2022-08-22T05:16:24.540Z,97803.09
2022-08-22T05:19:23.030Z,97798.84
2022-08-22T05:22:21.824Z,97804.25
2022-08-22T05:25:13.233Z,97805.13
2022-08-22T05:28:10.774Z,97815.38
2022-08-22T05:31:00.785Z,97815.19
2022-08-22T05:33:53.132Z,97815.53
2022-08-22T05:36:46.353Z,97820.56
2022-08-22T05:39:38.788Z,97815.97
2022-08-22T05:42:30.372Z,97826.81
2022-08-22T05:45:20.933Z,97834.66
2022-08-22T05:48:17.399Z,97832.19
2022-08-22T05:51:16.238Z,97833.66
2022-08-22T05:54:13.418Z,97842.13
2022-08-22T05:57:10.579Z,97843.00
2022-08-22T06:00:06.773Z,97841.50
2022-08-22T06:03:12.228Z,97848.34
2022-08-22T06:06:08.073Z,97848.59
2022-08-22T06:09:04.118Z,97844.91
2022-08-22T06:11:59.011Z,97858.59
2022-08-22T06:14:56.563Z,97856.06
2022-08-22T06:17:49.427Z,97851.78
2022-08-22T06:20:40.901Z,97847.38
2022-08-22T06:23:31.025Z,97846.22
2022-08-22T06:26:21.476Z,97846.78
2022-08-22T06:29:11.343Z,97843.06
2022-08-22T06:32:03.629Z,97848.22
2022-08-22T06:34:56.281Z,97855.78
2022-08-22T06:37:47.114Z,97856.59
2022-08-22T06:40:35.982Z,97856.38
2022-08-22T06:43:26.050Z,97861.72
2022-08-22T06:46:17.371Z,97852.28
2022-08-22T06:49:09.425Z,97856.50
2022-08-22T06:52:01.654Z,97854.19
2022-08-22T06:54:53.464Z,97847.94
2022-08-22T06:57:47.270Z,97850.09
2022-08-22T07:00:37.166Z,97853.97
2022-08-22T07:03:32.004Z,97855.78
2022-08-22T07:06:31.647Z,97851.69
2022-08-22T07:09:24.982Z,97851.03
2022-08-22T07:12:18.466Z,97857.56
2022-08-22T07:15:13.455Z,97855.44
2022-08-22T07:18:05.497Z,97865.47
2022-08-22T07:20:56.318Z,97864.44
2022-08-22T07:23:48.608Z,97862.28
2022-08-22T07:26:57.228Z,97870.91
2022-08-22T07:29:54.030Z,97874.63
2022-08-22T07:32:53.100Z,97868.81
2022-08-22T07:35:53.137Z,97874.06
2022-08-22T07:38:46.605Z,97880.97
2022-08-22T07:41:59.686Z,97874.06
2022-08-22T07:45:02.990Z,97873.69
2022-08-22T07:48:04.058Z,97877.63
2022-08-22T07:51:01.603Z,97877.97
2022-08-22T07:54:00.725Z,97881.75
2022-08-22T07:56:57.871Z,97872.94
2022-08-22T07:59:49.382Z,97886.81
2022-08-22T08:02:39.190Z,97881.00
2022-08-22T08:05:32.290Z,97878.00
2022-08-22T08:08:26.680Z,97877.06
2022-08-22T08:11:19.010Z,97877.25
2022-08-22T08:14:13.666Z,97876.13
2022-08-22T08:17:06.105Z,97877.25
2022-08-22T08:19:56.310Z,97875.75
2022-08-22T08:22:47.896Z,97869.22
2022-08-22T08:25:58.742Z,97868.44
2022-08-22T08:28:49.565Z,97871.50
2022-08-22T08:31:43.222Z,97869.56
2022-08-22T08:34:34.718Z,97874.81
2022-08-22T08:37:29.270Z,97872.94
2022-08-22T08:40:28.150Z,97872.16
2022-08-22T08:43:34.487Z,97864.66
2022-08-22T08:46:58.680Z,97867.94
2022-08-22T08:50:05.658Z,97865.47
2022-08-22T08:53:18.264Z,97863.50
2022-08-22T08:56:19.762Z,97865.41
2022-08-22T08:59:21.786Z,97871.09
2022-08-22T09:02:25.088Z,97876.66
2022-08-22T09:05:59.325Z,97884.16
2022-08-22T09:09:13.984Z,97874.91
2022-08-22T09:12:38.428Z,97883.72
2022-08-22T09:16:05.596Z,97884.34
2022-08-22T09:19:24.455Z,97883.44
2022-08-22T09:22:50.846Z,97881.72
2022-08-22T09:25:46.350Z,97886.69
2022-08-22T09:28:41.048Z,97891.00
2022-08-22T09:31:47.818Z,97890.84
2022-08-22T09:34:56.838Z,97893.75
2022-08-22T09:38:19.593Z,97896.81
2022-08-22T09:41:27.268Z,97907.41
2022-08-22T09:44:24.176Z,97903.00
2022-08-22T09:47:24.521Z,97905.66
2022-08-22T09:50:17.696Z,97904.63
2022-08-22T09:53:15.424Z,97909.31
2022-08-22T09:56:11.710Z,97911.38
2022-08-22T09:59:09.954Z,97907.91
2022-08-22T10:02:06.035Z,97906.75
2022-08-22T10:05:02.094Z,97910.50
2022-08-22T10:08:03.718Z,97914.25
2022-08-22T10:11:08.733Z,97915.59
2022-08-22T10:14:03.588Z,97910.91
2022-08-22T10:17:03.717Z,97908.50
2022-08-22T10:19:58.188Z,97905.16
2022-08-22T10:22:57.362Z,97907.34
2022-08-22T10:25:51.079Z,97901.31
2022-08-22T10:28:48.037Z,97905.41
2022-08-22T10:31:58.641Z,97920.78
2022-08-22T10:34:53.031Z,97921.69
2022-08-22T10:37:52.847Z,97924.16
2022-08-22T10:40:50.051Z,97923.63
2022-08-22T10:43:47.553Z,97927.00
2022-08-22T10:46:52.567Z,97916.53
2022-08-22T10:49:51.092Z,97924.22
2022-08-22T10:52:47.452Z,97916.53
2022-08-22T10:55:41.700Z,97910.34
2022-08-22T10:58:35.710Z,97907.00
2022-08-22T11:01:37.190Z,97902.13
2022-08-22T11:04:53.831Z,97902.66
2022-08-22T11:07:50.184Z,97908.47
2022-08-22T11:10:52.338Z,97912.56
2022-08-22T11:13:58.343Z,97905.28
2022-08-22T11:16:58.092Z,97904.94
2022-08-22T11:20:03.549Z,97908.84
2022-08-22T11:23:12.457Z,97914.84
2022-08-22T11:26:13.441Z,97903.63
2022-08-22T11:29:14.201Z,97902.13
2022-08-22T11:32:14.782Z,97885.47
2022-08-22T11:35:09.333Z,97885.47
2022-08-22T11:38:03.716Z,97880.81
2022-08-22T11:41:02.038Z,97869.66
2022-08-22T11:44:00.649Z,97869.34
2022-08-22T11:46:55.169Z,97863.06
2022-08-22T11:49:57.556Z,97875.28
2022-08-22T11:52:58.166Z,97868.19
2022-08-22T11:55:57.720Z,97860.69
2022-08-22T11:58:57.197Z,97870.13
2022-08-22T12:01:52.741Z,97858.81
2022-08-22T12:04:45.184Z,97854.44
2022-08-22T12:07:40.468Z,97853.41
2022-08-22T12:10:33.891Z,97853.22
2022-08-22T12:13:36.835Z,97846.72
2022-08-22T12:16:33.473Z,97853.22
2022-08-22T12:19:32.944Z,97856.88
2022-08-22T12:22:49.988Z,97859.69
2022-08-22T12:26:10.917Z,97856.53
2022-08-22T12:29:16.806Z,97847.84
2022-08-22T12:32:34.138Z,97858.16
2022-08-22T12:35:38.045Z,97855.09
2022-08-22T12:38:45.189Z,97852.97
2022-08-22T12:42:07.106Z,97853.84
2022-08-22T12:45:23.370Z,97845.97
2022-08-22T12:48:26.867Z,97857.75
2022-08-22T12:51:29.577Z,97856.72
2022-08-22T12:54:44.677Z,97857.53
2022-08-22T12:57:42.991Z,97852.66
2022-08-22T13:00:35.716Z,97854.06
2022-08-22T13:03:33.919Z,97851.50
2022-08-22T13:06:50.311Z,97857.78
2022-08-22T13:09:47.721Z,97862.50
2022-08-22T13:12:45.129Z,97853.22
2022-08-22T13:15:37.993Z,97857.69
2022-08-22T13:18:37.408Z,97864.00
2022-08-22T13:21:31.921Z,97849.75
2022-08-22T13:24:40.254Z,97841.50
2022-08-22T13:27:51.146Z,97845.94
2022-08-22T13:30:41.920Z,97847.50
2022-08-22T13:33:35.738Z,97845.13
2022-08-22T13:36:26.831Z,97833.03
2022-08-22T13:39:27.163Z,97839.13
2022-08-22T13:42:30.396Z,97840.53
2022-08-22T13:45:25.146Z,97836.97
2022-08-22T13:48:16.655Z,97833.69
2022-08-22T13:51:10.713Z,97837.88
2022-08-22T13:54:10.911Z,97831.84
2022-08-22T13:57:07.399Z,97835.47
2022-08-22T14:00:09.892Z,97837.56
2022-08-22T14:03:08.223Z,97820.97
2022-08-22T14:06:32.846Z,97815.94
2022-08-22T14:09:15.286Z,97816.53
2022-08-22T14:12:12.024Z,97824.28
2022-08-22T14:15:03.494Z,97809.31
2022-08-22T14:17:56.868Z,97806.50
2022-08-22T14:20:49.637Z,97807.88
2022-08-22T14:23:38.506Z,97825.56
2022-08-22T14:26:33.236Z,97820.91
2022-08-22T14:29:28.029Z,97822.81
2022-08-22T14:32:47.550Z,97821.28
2022-08-22T14:35:42.053Z,97828.66
2022-08-22T14:38:38.030Z,97821.66
2022-08-22T14:41:52.771Z,97828.66
2022-08-22T14:44:50.017Z,97821.25
2022-08-22T14:47:55.061Z,97812.81
2022-08-22T14:50:59.826Z,97823.47
2022-08-22T14:53:50.670Z,97818.94
2022-08-22T14:56:39.575Z,97817.28
2022-08-22T14:59:39.676Z,97810.63
2022-08-22T15:02:31.535Z,97810.25
2022-08-22T15:05:24.330Z,97808.03
2022-08-22T15:08:27.688Z,97817.28
2022-08-22T15:11:25.708Z,97815.91
2022-08-22T15:14:24.132Z,97813.34
2022-08-22T15:17:13.087Z,97815.66
2022-08-22T15:20:27.957Z,97822.13
2022-08-22T15:23:20.650Z,97810.63
2022-08-22T15:26:17.970Z,97811.34
2022-08-22T15:29:10.833Z,97820.06
2022-08-22T15:32:03.317Z,97825.03
2022-08-22T15:34:53.552Z,97821.94
2022-08-22T15:37:57.596Z,97818.91
2022-08-22T15:40:47.069Z,97813.22
2022-08-22T15:43:37.680Z,97809.94
2022-08-22T15:46:32.496Z,97823.53
2022-08-22T15:49:28.616Z,97818.00
2022-08-22T15:52:25.878Z,97821.72
2022-08-22T15:55:22.257Z,97815.19
2022-08-22T15:58:14.735Z,97821.94
2022-08-22T16:01:18.832Z,97824.03
2022-08-22T16:04:15.942Z,97823.50
2022-08-22T16:07:23.149Z,97823.94
2022-08-22T16:10:28.786Z,97839.00
2022-08-22T16:13:38.022Z,97839.66
2022-08-22T16:17:03.520Z,97837.78
2022-08-22T16:20:31.526Z,97839.13
2022-08-22T16:23:20.052Z,97845.50
2022-08-22T16:26:15.327Z,97840.28
2022-08-22T16:29:08.836Z,97845.44
2022-08-22T16:32:01.588Z,97858.19
2022-08-22T16:34:50.444Z,97854.16
2022-08-22T16:37:48.875Z,97850.59
2022-08-22T16:40:48.697Z,97840.41
2022-08-22T16:43:37.424Z,97832.88
2022-08-22T16:46:46.295Z,97826.19
2022-08-22T16:49:40.256Z,97822.69
2022-08-22T16:52:57.733Z,97821.28
2022-08-22T16:56:12.482Z,97819.97
2022-08-22T16:59:23.412Z,97826.00
2022-08-22T17:02:26.820Z,97828.16
2022-08-22T17:05:29.848Z,97834.28
2022-08-22T17:08:44.737Z,97842.50
2022-08-22T17:11:47.339Z,97834.69
2022-08-22T17:14:43.772Z,97849.75
2022-08-22T17:17:40.574Z,97846.53
2022-08-22T17:20:40.592Z,97840.66
2022-08-22T17:23:38.014Z,97857.22
2022-08-22T17:26:38.741Z,97863.81
2022-08-22T17:29:41.404Z,97858.16
2022-08-22T17:32:38.311Z,97857.06
2022-08-22T17:35:45.256Z,97854.44
2022-08-22T17:38:46.513Z,97853.53
2022-08-22T17:41:41.516Z,97864.16
2022-08-22T17:44:39.843Z,97860.97
2022-08-22T17:47:33.376Z,97850.50
2022-08-22T17:50:28.241Z,97865.34
2022-08-22T17:53:33.719Z,97861.63
2022-08-22T17:56:27.495Z,97858.63
2022-08-22T17:59:21.930Z,97866.38
2022-08-22T18:02:16.492Z,97877.22
2022-08-22T18:05:12.498Z,97893.16
2022-08-22T18:08:08.761Z,97897.03
2022-08-22T18:11:04.448Z,97895.47
2022-08-22T18:13:58.975Z,97882.91
2022-08-22T18:16:56.566Z,97892.44
2022-08-22T18:19:55.219Z,97887.31
2022-08-22T18:22:49.905Z,97883.72
2022-08-22T18:25:43.213Z,97886.19
2022-08-22T18:28:41.925Z,97887.47
2022-08-22T18:31:46.507Z,97885.88
2022-08-22T18:34:41.285Z,97890.72
2022-08-22T18:37:49.477Z,97875.69
2022-08-22T18:40:49.996Z,97878.16
2022-08-22T18:43:42.028Z,97874.00
2022-08-22T18:46:40.834Z,97877.97
2022-08-22T18:49:45.714Z,97874.16
2022-08-22T18:52:40.287Z,97892.69
2022-08-22T18:55:51.202Z,97889.09
2022-08-22T18:59:06.001Z,97886.47
2022-08-22T19:02:11.478Z,97882.94
2022-08-22T19:05:17.622Z,97879.50
2022-08-22T19:08:36.807Z,97881.69
2022-08-22T19:11:37.489Z,97889.97
2022-08-22T19:14:41.863Z,97889.03
2022-08-22T19:18:08.199Z,97889.69
2022-08-22T19:21:41.077Z,97898.50
2022-08-22T19:25:04.598Z,97909.91
2022-08-22T19:28:26.501Z,97912.88
2022-08-22T19:31:24.720Z,97920.41
2022-08-22T19:34:19.428Z,97917.09
2022-08-22T19:37:33.017Z,97914.44
2022-08-22T19:40:53.385Z,97930.19
2022-08-22T19:43:42.308Z,97931.13
2022-08-22T19:46:37.852Z,97929.63
2022-08-22T19:49:30.977Z,97906.97
2022-08-22T19:52:31.317Z,97910.34
2022-08-22T19:55:29.305Z,97911.75
2022-08-22T19:58:32.812Z,97903.06
2022-08-22T20:01:42.956Z,97885.56
2022-08-22T20:04:43.098Z,97875.00
2022-08-22T20:07:45.398Z,97871.56
2022-08-22T20:10:44.378Z,97888.25
2022-08-22T20:13:35.378Z,97899.53
2022-08-22T20:16:44.622Z,97919.25
2022-08-22T20:20:16.505Z,97937.25
2022-08-22T20:23:02.023Z,97968.78
2022-08-22T20:25:55.660Z,97967.44
2022-08-22T20:28:48.964Z,97966.00
2022-08-22T20:31:38.458Z,97960.78
2022-08-22T20:34:29.705Z,97953.03
2022-08-22T20:37:40.399Z,97972.00
2022-08-22T20:40:55.097Z,97979.34
2022-08-22T20:43:51.565Z,97947.78
2022-08-22T20:46:57.686Z,97964.38
2022-08-22T20:49:50.186Z,97963.16
2022-08-22T20:52:43.782Z,97952.22
2022-08-22T20:55:53.822Z,97953.78
2022-08-22T20:58:47.142Z,97916.13
2022-08-22T21:01:38.698Z,97928.00
2022-08-22T21:04:32.915Z,97932.97
2022-08-22T21:07:23.847Z,97930.59
2022-08-22T21:10:37.554Z,97925.22
2022-08-22T21:13:30.430Z,97928.38
2022-08-22T21:16:21.746Z,97912.53
2022-08-22T21:19:18.348Z,97918.75
2022-08-22T21:22:13.299Z,97917.13
2022-08-22T21:25:02.178Z,97915.25
2022-08-22T21:27:53.491Z,97921.41
2022-08-22T21:30:43.325Z,97935.72
2022-08-22T21:33:35.891Z,97938.50
2022-08-22T21:36:27.958Z,97944.72
2022-08-22T21:39:20.482Z,97944.03
2022-08-22T21:42:22.695Z,97944.63
2022-08-22T21:45:15.229Z,97936.13
2022-08-22T21:48:25.544Z,97941.41
2022-08-22T21:51:28.266Z,97925.69
2022-08-22T21:54:43.613Z,97897.75
2022-08-22T21:57:36.759Z,97904.94
2022-08-22T22:00:49.907Z,97892.41
2022-08-22T22:03:39.846Z,97875.69
2022-08-22T22:06:28.666Z,97875.19
2022-08-22T22:09:17.078Z,97869.56
2022-08-22T22:12:05.636Z,97857.84
2022-08-22T22:14:54.172Z,97856.56
2022-08-22T22:17:43.501Z,97851.69
2022-08-22T22:20:34.052Z,97846.97
2022-08-22T22:23:23.306Z,97854.13
2022-08-22T22:26:12.289Z,97842.97
2022-08-22T22:29:00.652Z,97831.91
2022-08-22T22:31:49.230Z,97827.69
2022-08-22T22:34:39.217Z,97824.38
2022-08-22T22:37:30.356Z,97812.47
2022-08-22T22:40:21.959Z,97832.16
2022-08-22T22:43:13.949Z,97838.91
2022-08-22T22:46:02.344Z,97827.00
2022-08-22T22:48:50.938Z,97826.69
2022-08-22T22:51:40.692Z,97823.56
2022-08-22T22:54:30.534Z,97816.88
2022-08-22T22:57:25.453Z,97839.41
2022-08-22T23:00:15.666Z,97824.88
2022-08-22T23:03:06.965Z,97822.53
2022-08-22T23:05:55.430Z,97827.72
2022-08-22T23:08:43.983Z,97829.69
2022-08-22T23:11:34.048Z,97833.22
2022-08-22T23:14:22.652Z,97832.47
2022-08-22T23:17:11.016Z,97833.25
2022-08-22T23:19:59.348Z,97832.91
2022-08-22T23:22:47.812Z,97827.31
2022-08-22T23:25:36.200Z,97822.66
2022-08-22T23:28:25.988Z,97824.25
2022-08-22T23:31:17.203Z,97821.78
2022-08-22T23:34:07.881Z,97816.38
2022-08-22T23:36:58.430Z,97823.13
2022-08-22T23:39:47.268Z,97824.06
2022-08-22T23:42:35.904Z,97842.47
2022-08-22T23:45:25.785Z,97848.44
2022-08-22T23:48:14.203Z,97858.91
2022-08-22T23:51:02.577Z,97860.97
2022-08-22T23:53:51.631Z,97860.97
2022-08-22T23:56:43.634Z,97860.44
2022-08-22T23:59:34.294Z,97860.72
